Time;durP1;ratioP1;P1;durP2;ratioP2;P2;SDS_P1;SDS_P2;PMS_P1;PMS_P2;Temp;Humidity;BMP_temperature;BMP_pressure;BME280_temperature;BME280_humidity;BME280_pressure;Samples;Min_cycle;Max_cycle;Signal;HPM_P1;HPM_P2
2021/04/28 00:00:26;;;;;;;12.90;6.22;;;13.80;56.10;;;;;;5069180;28;20690;-71
2021/04/28 00:02:53;;;;;;;14.38;6.45;;;13.80;56.00;;;;;;5077045;28;20570;-72
2021/04/28 00:05:20;;;;;;;10.95;5.85;;;13.70;55.80;;;;;;5075380;28;20213;-73
2021/04/28 00:07:47;;;;;;;12.20;5.97;;;13.70;55.70;;;;;;5071172;28;20198;-74
2021/04/28 00:10:16;;;;;;;10.93;6.25;;;13.70;55.70;;;;;;5069435;28;20210;-72
2021/04/28 00:12:43;;;;;;;14.70;6.35;;;13.60;55.60;;;;;;5068828;28;20202;-71
2021/04/28 00:15:13;;;;;;;13.43;6.20;;;13.60;55.60;;;;;;5068156;28;20202;-72
2021/04/28 00:17:40;;;;;;;14.02;5.97;;;13.60;55.50;;;;;;5066775;28;20206;-72
2021/04/28 00:20:08;;;;;;;10.85;5.80;;;13.60;55.50;;;;;;5070858;28;20214;-75
2021/04/28 00:22:34;;;;;;;9.93;6.25;;;13.50;55.50;;;;;;5067677;28;20195;-71
2021/04/28 00:25:01;;;;;;;9.93;5.95;;;13.50;55.50;;;;;;5068990;28;20202;-74
2021/04/28 00:27:27;;;;;;;10.15;6.28;;;13.50;55.50;;;;;;5072156;28;20658;-74
2021/04/28 00:29:54;;;;;;;10.93;6.38;;;13.50;55.50;;;;;;5076067;28;20204;-72
2021/04/28 00:32:21;;;;;;;11.25;6.32;;;13.40;55.40;;;;;;5065467;28;20646;-73
2021/04/28 00:34:47;;;;;;;13.57;6.47;;;13.40;55.40;;;;;;5073694;28;20199;-72
2021/04/28 00:37:13;;;;;;;10.75;6.15;;;13.40;55.40;;;;;;5066710;28;22942;-72
2021/04/28 00:39:40;;;;;;;13.82;6.20;;;13.30;55.40;;;;;;5076440;28;20210;-73
2021/04/28 00:42:07;;;;;;;9.55;6.05;;;13.30;55.40;;;;;;5066797;28;20295;-72
2021/04/28 00:44:34;;;;;;;13.15;6.30;;;13.30;55.40;;;;;;5082281;28;20206;-71
2021/04/28 00:47:02;;;;;;;10.02;6.15;;;13.20;55.40;;;;;;5065750;28;20202;-72
2021/04/28 00:49:28;;;;;;;13.10;5.90;;;13.20;55.40;;;;;;5068435;28;20572;-72
2021/04/28 00:51:55;;;;;;;17.02;6.10;;;13.10;55.40;;;;;;5070839;28;20675;-74
2021/04/28 00:54:22;;;;;;;9.57;5.65;;;13.10;55.60;;;;;;5068177;28;20264;-72
2021/04/28 00:56:48;;;;;;;10.98;6.32;;;13.10;55.70;;;;;;5067793;28;20202;-72
2021/04/28 00:59:17;;;;;;;10.48;6.65;;;13.00;55.60;;;;;;5071732;28;20233;-73
2021/04/28 01:01:43;;;;;;;11.43;6.35;;;13.00;55.80;;;;;;5064578;28;20682;-72
2021/04/28 01:04:12;;;;;;;11.57;6.50;;;13.00;55.80;;;;;;5067517;28;20689;-74
2021/04/28 01:06:39;;;;;;;10.45;6.68;;;13.00;55.90;;;;;;5070072;28;21007;-72
2021/04/28 01:09:06;;;;;;;11.43;6.40;;;12.90;55.90;;;;;;5081284;28;20562;-73
2021/04/28 01:11:33;;;;;;;12.02;6.55;;;12.90;55.90;;;;;;5072815;28;20194;-74
2021/04/28 01:14:01;;;;;;;10.18;6.15;;;12.90;56.10;;;;;;5071262;28;20206;-73
2021/04/28 01:16:29;;;;;;;15.27;7.07;;;12.80;56.00;;;;;;5068197;28;20664;-74
2021/04/28 01:18:56;;;;;;;12.77;6.57;;;12.80;56.10;;;;;;5071237;28;20198;-73
2021/04/28 01:21:23;;;;;;;10.95;6.80;;;12.80;56.20;;;;;;5067588;28;20749;-74
2021/04/28 01:23:51;;;;;;;9.73;6.63;;;12.70;56.30;;;;;;5068974;28;20202;-74
2021/04/28 01:26:20;;;;;;;11.75;6.68;;;12.70;56.30;;;;;;5068548;28;20281;-73
2021/04/28 01:28:49;;;;;;;10.55;6.60;;;12.70;56.50;;;;;;5067038;28;20257;-73
2021/04/28 01:31:16;;;;;;;11.15;6.75;;;12.60;56.50;;;;;;5067674;28;20195;-74
2021/04/28 01:33:47;;;;;;;14.02;7.00;;;12.60;56.70;;;;;;5066776;28;20214;-72
2021/04/28 01:36:20;;;;;;;9.85;7.05;;;12.60;56.80;;;;;;5071165;28;20293;-72
2021/04/28 01:38:51;;;;;;;11.00;6.88;;;12.50;56.80;;;;;;5070625;28;20213;-74
2021/04/28 01:41:23;;;;;;;9.23;6.85;;;12.50;57.00;;;;;;5070329;28;20247;-74
2021/04/28 01:43:51;;;;;;;13.02;7.15;;;12.50;57.10;;;;;;5065344;28;20213;-73
2021/04/28 01:46:20;;;;;;;11.25;7.20;;;12.40;57.30;;;;;;5068710;28;20689;-72
2021/04/28 01:48:48;;;;;;;13.00;7.28;;;12.40;57.40;;;;;;5067483;28;20199;-71
2021/04/28 01:51:17;;;;;;;10.18;6.65;;;12.40;58.10;;;;;;5069172;28;20206;-73
2021/04/28 01:53:44;;;;;;;14.07;7.15;;;12.30;57.60;;;;;;5066202;28;20627;-73
2021/04/28 01:56:12;;;;;;;12.98;6.88;;;12.30;57.90;;;;;;5069945;28;20205;-73
2021/04/28 01:58:45;;;;;;;13.60;6.70;;;12.30;58.00;;;;;;5067514;28;20199;-72
2021/04/28 02:01:20;;;;;;;12.57;7.18;;;12.30;58.10;;;;;;5072828;28;20275;-72
2021/04/28 02:03:49;;;;;;;10.85;7.00;;;12.20;58.10;;;;;;5065526;28;20731;-73
2021/04/28 02:06:15;;;;;;;12.50;7.45;;;12.20;58.40;;;;;;5065777;28;20202;-71
2021/04/28 02:08:43;;;;;;;9.57;6.97;;;12.20;58.70;;;;;;5069675;28;20202;-72
2021/04/28 02:11:12;;;;;;;13.80;7.65;;;12.20;58.80;;;;;;5064940;28;20199;-72
2021/04/28 02:13:44;;;;;;;9.90;6.93;;;12.10;59.00;;;;;;5068537;28;20287;-71
2021/04/28 02:16:41;;;;;;;12.57;7.20;;;12.10;59.10;;;;;;5062344;28;20678;-71
2021/04/28 02:19:12;;;;;;;10.68;7.65;;;12.00;59.30;;;;;;5066317;28;20198;-73
2021/04/28 02:21:43;;;;;;;14.75;7.68;;;12.00;59.60;;;;;;5065937;28;20301;-73
2021/04/28 02:24:22;;;;;;;9.73;7.78;;;12.00;59.90;;;;;;5069014;28;20216;-73
2021/04/28 02:26:56;;;;;;;11.00;7.07;;;11.90;60.10;;;;;;5071051;28;20202;-71
2021/04/28 02:29:23;;;;;;;13.65;7.82;;;11.90;60.40;;;;;;5064963;28;20427;-72
2021/04/28 02:31:51;;;;;;;10.80;7.40;;;12.20;62.60;;;;;;5065349;28;20281;-72
2021/04/28 02:34:22;;;;;;;11.55;7.35;;;12.10;61.90;;;;;;5063531;28;20203;-72
2021/04/28 02:37:02;;;;;;;15.60;7.20;;;12.00;62.00;;;;;;5072216;28;20229;-72
2021/04/28 02:39:59;;;;;;;11.98;7.60;;;11.90;62.10;;;;;;5049389;28;20217;-71
2021/04/28 02:42:26;;;;;;;15.90;7.40;;;11.80;62.20;;;;;;5070688;28;20233;-70
2021/04/28 02:44:57;;;;;;;12.82;7.72;;;11.80;62.40;;;;;;5068258;28;20198;-72
2021/04/28 02:47:27;;;;;;;12.15;8.15;;;11.70;62.40;;;;;;5068451;28;20198;-73
2021/04/28 02:49:54;;;;;;;11.38;7.45;;;11.70;62.60;;;;;;5068773;28;20277;-71
2021/04/28 02:52:40;;;;;;;13.88;7.55;;;11.60;62.80;;;;;;5069089;28;20714;-73
2021/04/28 02:55:07;;;;;;;14.20;7.88;;;11.60;63.00;;;;;;5072618;28;20199;-72
2021/04/28 02:57:37;;;;;;;10.13;7.68;;;11.50;63.20;;;;;;5067596;28;20229;-73
2021/04/28 03:00:07;;;;;;;14.70;7.70;;;11.50;63.50;;;;;;5071566;28;20801;-71
2021/04/28 03:02:36;;;;;;;11.68;7.95;;;11.50;63.60;;;;;;5071825;28;20210;-73
2021/04/28 03:05:04;;;;;;;12.23;8.25;;;11.40;63.80;;;;;;5070896;28;20199;-71
2021/04/28 03:08:00;;;;;;;11.73;7.40;;;11.40;64.10;;;;;;5068273;28;20221;-73
2021/04/28 03:10:26;;;;;;;11.25;7.75;;;11.40;64.40;;;;;;5069093;28;20199;-71
2021/04/28 03:12:54;;;;;;;13.48;7.85;;;11.30;64.60;;;;;;5071815;28;20211;-71
2021/04/28 03:15:21;;;;;;;15.90;8.32;;;11.30;64.70;;;;;;5069010;28;20275;-73
2021/04/28 03:17:51;;;;;;;11.70;8.25;;;11.30;65.10;;;;;;5069110;28;20302;-72
2021/04/28 03:20:26;;;;;;;16.58;8.02;;;11.20;65.20;;;;;;5074637;28;20241;-73
2021/04/28 03:22:54;;;;;;;13.13;7.80;;;11.20;65.50;;;;;;5070761;28;20870;-71
2021/04/28 03:25:21;;;;;;;14.07;8.23;;;11.20;65.80;;;;;;5071237;28;20237;-72
2021/04/28 03:27:53;;;;;;;11.10;7.85;;;11.20;66.00;;;;;;5069080;28;20217;-73
2021/04/28 03:30:20;;;;;;;13.50;8.73;;;11.20;66.20;;;;;;5071673;28;20281;-71
2021/04/28 03:32:47;;;;;;;11.40;8.38;;;11.20;66.60;;;;;;5069222;28;20237;-71
2021/04/28 03:35:37;;;;;;;13.40;8.73;;;11.20;66.80;;;;;;5071734;28;20654;-73
2021/04/28 03:38:36;;;;;;;11.77;8.45;;;11.10;67.10;;;;;;5059027;28;20299;-73
2021/04/28 03:41:05;;;;;;;18.15;9.55;;;11.10;67.40;;;;;;5070453;28;20237;-75
2021/04/28 03:43:33;;;;;;;17.02;8.77;;;11.10;67.60;;;;;;5068619;28;20202;-75
2021/04/28 03:46:00;;;;;;;11.88;9.27;;;11.00;67.90;;;;;;5071022;28;20208;-74
2021/04/28 03:48:55;;;;;;;13.88;9.15;;;11.00;68.10;;;;;;5061270;28;20199;-75
2021/04/28 03:51:25;;;;;;;12.60;9.60;;;11.00;68.50;;;;;;5066775;28;20194;-74
2021/04/28 03:54:10;;;;;;;14.13;9.82;;;11.00;68.70;;;;;;5073279;28;20258;-74
2021/04/28 03:56:38;;;;;;;16.05;9.60;;;11.00;69.00;;;;;;5071930;28;20271;-74
2021/04/28 03:59:05;;;;;;;16.40;9.13;;;10.90;69.20;;;;;;5065883;28;20206;-74
2021/04/28 04:01:32;;;;;;;19.33;10.45;;;10.90;69.50;;;;;;5069695;28;20267;-74
2021/04/28 04:04:02;;;;;;;15.40;9.43;;;10.80;69.60;;;;;;5065587;28;20226;-74
2021/04/28 04:06:47;;;;;;;16.05;9.82;;;10.80;70.00;;;;;;5067167;28;20245;-75
2021/04/28 04:09:19;;;;;;;13.90;9.52;;;10.80;70.20;;;;;;5072690;28;20206;-75
2021/04/28 04:11:46;;;;;;;15.98;9.45;;;10.70;70.40;;;;;;5067956;28;20202;-75
2021/04/28 04:14:24;;;;;;;13.57;9.75;;;10.70;70.60;;;;;;5068096;28;20214;-75
2021/04/28 04:16:52;;;;;;;13.75;10.50;;;10.60;70.90;;;;;;5067019;28;20198;-73
2021/04/28 04:19:20;;;;;;;14.52;9.60;;;10.60;71.30;;;;;;5069600;28;20206;-73
2021/04/28 04:22:01;;;;;;;15.90;10.23;;;10.60;71.40;;;;;;5067844;28;20215;-73
2021/04/28 04:25:00;;;;;;;15.27;9.63;;;10.60;71.60;;;;;;5038108;28;20206;-74
2021/04/28 04:27:26;;;;;;;13.85;9.90;;;10.50;71.70;;;;;;5065671;28;20241;-74
2021/04/28 04:29:53;;;;;;;15.63;9.60;;;10.50;71.80;;;;;;5067921;28;20619;-73
2021/04/28 04:32:31;;;;;;;15.00;10.75;;;10.50;72.10;;;;;;5065380;28;20621;-76
2021/04/28 04:35:16;;;;;;;16.35;10.48;;;10.50;72.40;;;;;;5067396;28;20236;-73
2021/04/28 04:38:02;;;;;;;15.05;9.98;;;10.40;72.50;;;;;;5071612;28;20212;-73
2021/04/28 04:40:38;;;;;;;14.38;10.32;;;10.40;72.70;;;;;;5068028;28;20229;-74
2021/04/28 04:43:25;;;;;;;15.65;10.27;;;10.40;72.80;;;;;;5061919;28;20217;-73
2021/04/28 04:46:00;;;;;;;19.83;10.55;;;10.40;72.80;;;;;;5068445;28;20194;-76
2021/04/28 04:48:26;;;;;;;14.70;10.20;;;10.40;72.90;;;;;;5066658;28;20209;-75
2021/04/28 04:50:52;;;;;;;12.32;9.60;;;10.40;72.90;;;;;;5071277;28;20204;-74
2021/04/28 04:53:20;;;;;;;17.75;9.88;;;10.40;73.10;;;;;;5073141;28;20198;-73
2021/04/28 04:55:46;;;;;;;15.65;9.85;;;10.40;73.30;;;;;;5067997;28;20254;-73
2021/04/28 04:58:12;;;;;;;15.23;10.07;;;10.40;73.40;;;;;;5067078;28;20878;-75
2021/04/28 05:00:39;;;;;;;14.73;9.98;;;10.40;73.50;;;;;;5065392;28;20237;-73
2021/04/28 05:03:05;;;;;;;15.27;9.73;;;10.40;73.60;;;;;;5073688;28;20206;-74
2021/04/28 05:05:31;;;;;;;16.42;10.02;;;10.40;73.50;;;;;;5072735;28;20673;-74
2021/04/28 05:07:58;;;;;;;13.18;9.85;;;10.40;73.60;;;;;;5068593;28;20702;-73
2021/04/28 05:10:25;;;;;;;21.10;10.13;;;10.40;73.70;;;;;;5074534;28;20209;-72
2021/04/28 05:12:52;;;;;;;24.15;10.10;;;10.40;73.70;;;;;;5068900;28;20289;-74
2021/04/28 05:15:18;;;;;;;11.73;9.30;;;10.30;73.60;;;;;;5067236;28;20247;-74
2021/04/28 05:17:45;;;;;;;14.02;9.40;;;10.30;73.70;;;;;;5067209;28;20570;-74
2021/04/28 05:20:13;;;;;;;15.77;9.90;;;10.30;73.80;;;;;;5070045;28;20777;-73
2021/04/28 05:22:39;;;;;;;14.60;9.70;;;10.30;73.90;;;;;;5063040;28;20214;-74
2021/04/28 05:25:25;;;;;;;13.80;9.27;;;10.20;74.00;;;;;;5074445;28;20200;-75
2021/04/28 05:27:52;;;;;;;18.02;9.52;;;10.20;74.00;;;;;;5069968;28;20221;-74
2021/04/28 05:30:20;;;;;;;17.20;9.77;;;10.20;74.00;;;;;;5072394;28;20202;-74
2021/04/28 05:32:46;;;;;;;13.70;9.27;;;10.30;74.10;;;;;;5079293;28;20790;-74
2021/04/28 05:35:13;;;;;;;16.13;9.77;;;10.20;74.00;;;;;;5072349;28;20195;-74
2021/04/28 05:37:40;;;;;;;14.50;8.75;;;10.20;74.00;;;;;;5072468;28;20205;-74
2021/04/28 05:40:08;;;;;;;13.13;8.60;;;10.30;74.00;;;;;;5071515;28;20657;-74
2021/04/28 05:42:36;;;;;;;17.05;9.13;;;10.30;74.00;;;;;;5073014;28;20548;-74
2021/04/28 05:45:03;;;;;;;16.33;10.15;;;10.30;73.90;;;;;;5066346;28;20210;-74
2021/04/28 05:47:30;;;;;;;17.58;9.50;;;10.30;73.90;;;;;;5071335;28;20278;-73
2021/04/28 05:49:56;;;;;;;14.18;9.32;;;10.30;73.90;;;;;;5069020;28;20569;-73
2021/04/28 05:52:22;;;;;;;18.33;9.18;;;10.30;73.80;;;;;;5063746;28;20525;-73
2021/04/28 05:54:49;;;;;;;12.23;8.95;;;10.30;73.80;;;;;;5077970;28;20199;-73
2021/04/28 05:57:16;;;;;;;16.77;9.40;;;10.40;73.70;;;;;;5068363;28;20210;-73
2021/04/28 05:59:44;;;;;;;18.27;9.35;;;10.30;73.60;;;;;;5074329;28;20316;-74
2021/04/28 06:02:10;;;;;;;17.42;9.27;;;10.30;74.50;;;;;;5078710;28;20214;-73
2021/04/28 06:04:37;;;;;;;15.23;8.75;;;10.40;73.70;;;;;;5070359;28;20202;-74
2021/04/28 06:07:03;;;;;;;12.20;8.48;;;10.40;73.60;;;;;;5081753;28;20202;-73
2021/04/28 06:09:30;;;;;;;12.88;8.20;;;10.40;73.50;;;;;;5076507;28;20197;-73
2021/04/28 06:11:56;;;;;;;15.75;8.35;;;10.40;73.50;;;;;;5078903;28;20205;-75
2021/04/28 06:14:23;;;;;;;12.88;8.77;;;10.40;73.60;;;;;;5084753;28;20578;-70
2021/04/28 06:16:50;;;;;;;15.38;8.85;;;10.50;73.70;;;;;;5093976;28;20212;-72
2021/04/28 06:19:16;;;;;;;14.82;8.80;;;10.50;73.70;;;;;;5084321;28;20202;-71
2021/04/28 06:21:43;;;;;;;13.07;8.60;;;10.50;73.80;;;;;;5080839;28;20217;-71
2021/04/28 06:24:10;;;;;;;16.65;8.77;;;10.60;73.80;;;;;;5075429;28;20221;-73
2021/04/28 06:26:39;;;;;;;12.57;8.23;;;10.60;73.80;;;;;;5075189;28;20206;-71
2021/04/28 06:29:05;;;;;;;24.27;8.35;;;10.70;73.80;;;;;;5073510;28;20206;-73
2021/04/28 06:31:31;;;;;;;15.13;8.50;;;10.70;73.80;;;;;;5072722;28;20682;-73
2021/04/28 06:33:59;;;;;;;17.35;8.32;;;10.70;73.90;;;;;;5080220;28;20297;-75
2021/04/28 06:36:25;;;;;;;15.48;8.10;;;10.80;74.00;;;;;;5083175;28;20635;-73
2021/04/28 06:38:51;;;;;;;18.45;9.07;;;10.80;74.20;;;;;;5086338;28;20222;-73
2021/04/28 06:41:18;;;;;;;17.83;8.27;;;10.80;74.20;;;;;;5072844;28;20702;-75
2021/04/28 06:43:44;;;;;;;18.67;8.40;;;10.90;74.30;;;;;;5074548;28;20213;-74
2021/04/28 06:46:10;;;;;;;15.63;8.32;;;10.90;74.30;;;;;;5077570;28;20259;-73
2021/04/28 06:48:39;;;;;;;18.80;8.93;;;10.90;74.20;;;;;;5090303;28;20688;-74
2021/04/28 06:51:06;;;;;;;16.25;9.10;;;11.00;74.10;;;;;;5081940;28;20248;-73
2021/04/28 06:53:32;;;;;;;15.40;8.32;;;11.00;73.90;;;;;;5087672;28;20194;-73
2021/04/28 06:55:59;;;;;;;11.60;7.78;;;11.00;73.70;;;;;;5071979;28;20251;-75
2021/04/28 06:58:28;;;;;;;15.80;7.80;;;11.10;73.60;;;;;;5078943;28;20652;-75
2021/04/28 07:00:55;;;;;;;15.77;8.45;;;11.10;73.50;;;;;;5072520;28;20226;-73
2021/04/28 07:03:21;;;;;;;14.85;8.02;;;11.20;73.30;;;;;;5079803;28;20253;-75
2021/04/28 07:05:48;;;;;;;17.20;7.60;;;11.20;73.00;;;;;;5080267;28;20201;-72
2021/04/28 07:08:15;;;;;;;14.65;8.10;;;11.30;72.50;;;;;;5072908;28;20557;-73
2021/04/28 07:10:42;;;;;;;12.20;7.45;;;11.30;72.80;;;;;;5073078;28;20222;-75
2021/04/28 07:13:08;;;;;;;12.60;7.32;;;11.30;71.50;;;;;;5070688;28;20210;-73
2021/04/28 07:15:35;;;;;;;23.48;8.32;;;11.40;71.30;;;;;;5079824;28;20220;-74
2021/04/28 07:18:01;;;;;;;15.50;7.65;;;11.40;71.00;;;;;;5079808;28;20550;-77
2021/04/28 07:20:27;;;;;;;15.00;7.68;;;11.40;70.50;;;;;;5073398;28;20195;-76
2021/04/28 07:22:54;;;;;;;16.88;7.82;;;11.50;70.20;;;;;;5086158;28;20265;-74
2021/04/28 07:25:22;;;;;;;13.35;7.07;;;11.50;69.80;;;;;;5087783;28;20201;-73
2021/04/28 07:27:48;;;;;;;16.27;7.18;;;11.50;69.50;;;;;;5077288;28;20198;-76
2021/04/28 07:30:16;;;;;;;12.38;7.40;;;11.60;69.40;;;;;;5088830;28;20208;-72
2021/04/28 07:32:43;;;;;;;12.80;7.18;;;11.60;69.10;;;;;;5084553;28;20200;-73
2021/04/28 07:35:12;;;;;;;12.48;7.10;;;11.60;68.80;;;;;;5074001;28;20660;-72
2021/04/28 07:37:38;;;;;;;13.20;6.57;;;11.60;68.40;;;;;;5067725;28;20237;-73
2021/04/28 07:40:07;;;;;;;12.23;6.78;;;11.70;68.20;;;;;;5072370;28;20214;-74
2021/04/28 07:42:34;;;;;;;11.13;7.05;;;11.70;67.90;;;;;;5066628;28;20243;-72
2021/04/28 07:45:01;;;;;;;13.85;7.68;;;11.80;67.80;;;;;;5069860;28;20214;-74
2021/04/28 07:47:27;;;;;;;10.35;7.45;;;11.80;67.40;;;;;;5070376;28;20562;-74
2021/04/28 07:49:54;;;;;;;13.13;7.13;;;11.80;67.00;;;;;;5070603;28;20194;-70
2021/04/28 07:52:20;;;;;;;15.65;7.03;;;11.90;66.70;;;;;;5071931;28;20198;-71
2021/04/28 07:54:47;;;;;;;10.90;6.88;;;11.90;66.30;;;;;;5077869;28;20645;-71
2021/04/28 07:57:14;;;;;;;14.38;6.88;;;11.90;66.10;;;;;;5083845;28;20246;-71
2021/04/28 07:59:44;;;;;;;11.35;6.80;;;12.00;65.70;;;;;;5052420;28;656056;-72
2021/04/28 08:02:10;;;;;;;13.32;6.85;;;12.10;65.20;;;;;;5087142;28;20580;-71
2021/04/28 08:04:38;;;;;;;16.58;6.88;;;12.10;64.80;;;;;;5080886;28;20716;-74
2021/04/28 08:07:05;;;;;;;15.43;7.05;;;12.20;64.70;;;;;;5068602;28;20194;-71
2021/04/28 08:09:32;;;;;;;9.90;7.03;;;12.20;64.20;;;;;;5072790;28;20265;-71
2021/04/28 08:11:58;;;;;;;12.07;6.50;;;12.30;63.90;;;;;;5079847;28;20186;-71
2021/04/28 08:14:24;;;;;;;10.68;6.18;;;12.30;63.50;;;;;;5072410;28;20213;-72
2021/04/28 08:16:52;;;;;;;10.65;6.90;;;12.40;63.10;;;;;;5082483;28;20206;-71
2021/04/28 08:19:18;;;;;;;11.07;7.15;;;12.40;62.60;;;;;;5092630;28;20247;-71
2021/04/28 08:21:44;;;;;;;11.98;6.47;;;12.50;62.10;;;;;;5082671;28;20691;-70
2021/04/28 08:24:11;;;;;;;9.25;6.38;;;12.50;61.50;;;;;;5073919;28;20210;-72
2021/04/28 08:26:38;;;;;;;11.77;6.85;;;12.60;60.80;;;;;;5072909;28;20202;-72
2021/04/28 08:29:05;;;;;;;12.73;6.93;;;12.60;60.10;;;;;;5074330;28;20296;-72
2021/04/28 08:31:31;;;;;;;13.50;7.15;;;12.70;59.50;;;;;;5086020;28;20190;-73
2021/04/28 08:33:58;;;;;;;10.20;6.45;;;12.70;59.20;;;;;;5071044;28;20199;-72
2021/04/28 08:36:25;;;;;;;9.60;6.50;;;12.80;58.90;;;;;;5076837;28;20190;-71
2021/04/28 08:38:51;;;;;;;10.10;6.60;;;12.80;58.70;;;;;;5091462;28;20197;-72
2021/04/28 08:41:17;;;;;;;15.80;6.63;;;12.90;58.70;;;;;;5074332;28;20202;-72
2021/04/28 08:43:44;;;;;;;10.43;6.68;;;12.90;59.30;;;;;;5075016;28;20217;-72
2021/04/28 08:46:10;;;;;;;10.63;6.60;;;13.00;58.60;;;;;;5070681;28;20214;-72
2021/04/28 08:48:37;;;;;;;11.20;6.35;;;13.00;58.50;;;;;;5085131;28;20194;-71
2021/04/28 08:51:05;;;;;;;9.15;6.55;;;13.10;58.20;;;;;;5072568;28;20645;-72
2021/04/28 08:53:32;;;;;;;12.10;6.20;;;13.10;57.80;;;;;;5084144;28;20686;-72
2021/04/28 08:56:05;;;;;;;11.68;6.20;;;13.20;57.20;;;;;;5077780;28;20195;-71
2021/04/28 08:58:31;;;;;;;12.60;6.82;;;13.20;56.70;;;;;;5072442;28;20190;-72
2021/04/28 09:00:58;;;;;;;11.57;6.90;;;13.30;56.50;;;;;;5089766;28;20571;-72
2021/04/28 09:03:38;;;;;;;13.55;6.55;;;13.30;57.20;;;;;;5078626;28;20208;-73
2021/04/28 09:06:28;;;;;;;13.32;7.10;;;13.40;57.00;;;;;;5079361;28;20210;-71
2021/04/28 09:08:54;;;;;;;13.38;6.50;;;13.50;57.10;;;;;;5065932;28;20203;-72
2021/04/28 09:11:41;;;;;;;13.65;6.22;;;13.60;57.10;;;;;;5072548;28;20190;-71
2021/04/28 09:14:14;;;;;;;14.68;6.65;;;13.60;57.20;;;;;;5071322;28;20557;-71
2021/04/28 09:16:43;;;;;;;11.57;6.82;;;13.70;57.00;;;;;;5070323;28;20576;-73
2021/04/28 09:19:25;;;;;;;13.40;6.55;;;13.70;56.80;;;;;;5067572;28;20483;-71
2021/04/28 09:22:15;;;;;;;10.63;6.40;;;13.80;56.60;;;;;;5065212;28;20232;-71
2021/04/28 09:25:00;;;;;;;15.00;6.20;;;13.90;56.40;;;;;;5071065;28;20244;-72
2021/04/28 09:27:46;;;;;;;13.75;6.75;;;13.90;56.10;;;;;;5067981;28;20249;-74
2021/04/28 09:30:40;;;;;;;9.73;6.72;;;14.00;55.50;;;;;;5065606;28;20302;-71
2021/04/28 09:33:06;;;;;;;8.50;6.57;;;14.10;55.20;;;;;;5068062;28;20202;-70
2021/04/28 09:35:32;;;;;;;11.18;6.60;;;14.20;54.90;;;;;;5068102;28;20232;-71
2021/04/28 09:38:01;;;;;;;14.00;6.65;;;14.20;54.40;;;;;;5069834;28;20203;-71
2021/04/28 09:40:41;;;;;;;8.13;6.28;;;14.30;53.60;;;;;;5073282;28;20247;-72
2021/04/28 09:43:07;;;;;;;12.63;7.38;;;14.40;53.10;;;;;;5070409;28;20193;-72
2021/04/28 09:45:38;;;;;;;14.30;7.13;;;14.40;52.50;;;;;;5072288;28;20202;-73
2021/04/28 09:48:05;;;;;;;10.50;7.03;;;14.50;51.60;;;;;;5068477;28;20201;-72
2021/04/28 09:50:31;;;;;;;13.30;7.25;;;14.60;51.30;;;;;;5067436;28;20221;-72
2021/04/28 09:52:59;;;;;;;12.10;7.25;;;14.60;50.90;;;;;;5071208;28;20248;-72
2021/04/28 09:55:26;;;;;;;10.65;6.78;;;14.70;50.20;;;;;;5069078;28;20198;-71
2021/04/28 09:57:55;;;;;;;8.70;6.53;;;14.70;49.70;;;;;;5069236;28;20211;-71
2021/04/28 10:00:23;;;;;;;17.23;6.93;;;14.80;49.30;;;;;;5065828;28;20301;-72
2021/04/28 10:02:57;;;;;;;10.20;6.50;;;14.90;49.10;;;;;;5066836;28;20230;-72
2021/04/28 10:05:26;;;;;;;10.30;6.93;;;15.00;48.90;;;;;;5068082;28;20202;-73
2021/04/28 10:08:06;;;;;;;10.07;6.90;;;15.00;48.60;;;;;;5069705;28;20202;-71
2021/04/28 10:10:34;;;;;;;11.55;6.95;;;15.10;48.40;;;;;;5070512;28;20194;-71
2021/04/28 10:13:01;;;;;;;9.68;6.65;;;15.20;48.00;;;;;;5069606;28;20608;-71
2021/04/28 10:15:27;;;;;;;10.27;7.10;;;15.20;47.70;;;;;;5066018;28;20203;-72
2021/04/28 10:17:55;;;;;;;48.30;9.30;;;15.30;47.50;;;;;;5063818;28;20248;-73
2021/04/28 10:20:21;;;;;;;9.20;6.82;;;15.40;47.30;;;;;;5071292;28;20202;-72
2021/04/28 10:22:51;;;;;;;11.75;6.75;;;15.50;47.60;;;;;;5070880;28;20221;-73
2021/04/28 10:25:18;;;;;;;10.48;6.60;;;15.60;46.60;;;;;;5073285;28;20653;-72
2021/04/28 10:27:46;;;;;;;11.60;6.70;;;15.60;46.40;;;;;;5068415;28;20207;-72
2021/04/28 10:30:17;;;;;;;11.35;6.80;;;15.70;46.10;;;;;;5065985;28;20709;-73
2021/04/28 10:32:44;;;;;;;11.52;7.05;;;15.80;45.90;;;;;;5066617;28;20190;-75
2021/04/28 10:35:13;;;;;;;13.30;6.10;;;15.80;45.70;;;;;;5071845;28;20254;-73
2021/04/28 10:37:41;;;;;;;17.75;7.88;;;16.00;45.20;;;;;;5066363;28;20604;-72
2021/04/28 10:40:13;;;;;;;10.75;6.93;;;16.10;44.90;;;;;;5066614;28;20234;-72
2021/04/28 10:42:41;;;;;;;9.65;7.00;;;16.10;44.50;;;;;;5066564;28;20486;-72
2021/04/28 10:45:10;;;;;;;14.45;7.18;;;16.20;44.20;;;;;;5066888;28;20199;-72
2021/04/28 10:47:42;;;;;;;9.20;7.45;;;16.30;43.90;;;;;;5064402;28;20700;-74
2021/04/28 10:50:15;;;;;;;10.38;7.63;;;16.30;43.70;;;;;;5071598;28;20243;-73
2021/04/28 10:52:44;;;;;;;12.77;7.07;;;16.40;43.50;;;;;;5066211;28;20253;-73
2021/04/28 10:55:46;;;;;;;14.77;7.78;;;16.50;43.40;;;;;;5067248;28;20195;-74
2021/04/28 10:58:38;;;;;;;10.43;7.72;;;16.60;43.50;;;;;;5066904;28;20585;-72
2021/04/28 11:01:32;;;;;;;13.63;7.57;;;16.70;43.80;;;;;;5070647;28;21245;-72
2021/04/28 11:03:58;;;;;;;14.95;7.10;;;16.80;44.00;;;;;;5071018;28;20222;-72
2021/04/28 11:06:32;;;;;;;14.27;8.52;;;16.90;43.80;;;;;;5076029;28;20199;-72
2021/04/28 11:09:11;;;;;;;13.43;7.90;;;17.10;43.50;;;;;;5071777;28;20207;-74
2021/04/28 11:11:41;;;;;;;14.05;8.23;;;17.20;43.40;;;;;;5070879;28;20195;-74
2021/04/28 11:14:29;;;;;;;10.70;7.60;;;17.30;43.20;;;;;;5087492;28;20223;-73
2021/04/28 11:16:58;;;;;;;14.85;7.68;;;17.40;43.00;;;;;;5070165;28;20328;-73
2021/04/28 11:19:26;;;;;;;12.13;7.63;;;17.50;43.00;;;;;;5071965;28;20256;-73
2021/04/28 11:22:15;;;;;;;9.43;6.97;;;17.60;42.80;;;;;;5074391;28;21123;-73
2021/04/28 11:25:17;;;;;;;11.88;8.50;;;17.70;42.60;;;;;;5073192;28;20202;-72
2021/04/28 11:27:56;;;;;;;13.25;7.97;;;17.80;42.40;;;;;;5037538;28;20218;-72
2021/04/28 11:30:26;;;;;;;12.13;7.78;;;17.90;42.20;;;;;;5069099;28;20539;-72
2021/04/28 11:33:14;;;;;;;18.58;8.20;;;17.90;41.80;;;;;;5073741;28;20247;-72
2021/04/28 11:35:42;;;;;;;12.70;7.78;;;18.10;41.50;;;;;;5072092;28;20233;-73
2021/04/28 11:38:12;;;;;;;14.68;8.35;;;18.20;41.20;;;;;;5072069;28;20198;-73
2021/04/28 11:40:49;;;;;;;12.07;8.68;;;18.20;40.90;;;;;;5075720;28;20202;-71
2021/04/28 11:43:18;;;;;;;14.23;8.55;;;18.30;40.80;;;;;;5069960;28;20214;-70
2021/04/28 11:45:45;;;;;;;11.95;9.13;;;18.40;40.70;;;;;;5074713;28;20203;-73
2021/04/28 11:48:17;;;;;;;15.75;8.23;;;18.50;40.70;;;;;;5066267;28;20202;-72
2021/04/28 11:50:55;;;;;;;15.05;8.05;;;18.60;40.30;;;;;;5072840;28;20239;-73
2021/04/28 11:53:22;;;;;;;19.10;8.10;;;18.80;40.30;;;;;;5067279;28;20558;-72
2021/04/28 11:55:49;;;;;;;13.55;8.38;;;18.90;40.10;;;;;;5069001;28;20206;-73
2021/04/28 11:58:24;;;;;;;12.80;7.78;;;19.00;39.80;;;;;;5067203;28;20214;-75
2021/04/28 12:00:59;;;;;;;13.77;8.23;;;19.10;39.30;;;;;;5069256;28;20243;-75
2021/04/28 12:03:26;;;;;;;16.80;9.32;;;19.30;39.30;;;;;;5069155;28;20612;-72
2021/04/28 12:05:53;;;;;;;15.63;9.15;;;19.30;39.10;;;;;;5075744;28;20564;-73
2021/04/28 12:08:19;;;;;;;12.63;9.13;;;19.40;38.90;;;;;;5067845;28;20194;-72
2021/04/28 12:10:54;;;;;;;13.30;9.18;;;19.40;38.70;;;;;;5069080;28;20217;-73
2021/04/28 12:13:20;;;;;;;15.80;8.70;;;19.50;38.50;;;;;;5070590;28;20201;-72
2021/04/28 12:15:54;;;;;;;14.73;9.18;;;19.50;38.50;;;;;;5070909;28;20666;-72
2021/04/28 12:18:32;;;;;;;12.77;9.02;;;19.60;38.50;;;;;;5066472;28;20229;-73
2021/04/28 12:21:00;;;;;;;13.90;9.15;;;19.70;38.40;;;;;;5067624;28;20248;-72
2021/04/28 12:23:26;;;;;;;18.25;8.70;;;19.70;38.20;;;;;;5066733;28;20210;-73
2021/04/28 12:25:53;;;;;;;16.60;9.75;;;19.70;38.00;;;;;;5069982;28;20209;-72
2021/04/28 12:28:20;;;;;;;12.82;8.25;;;19.80;37.80;;;;;;5067310;28;20210;-72
2021/04/28 12:30:49;;;;;;;12.43;8.93;;;19.80;37.70;;;;;;5066227;28;20275;-72
2021/04/28 12:33:16;;;;;;;14.65;8.68;;;19.80;37.50;;;;;;5068641;28;20202;-72
2021/04/28 12:35:45;;;;;;;13.95;9.15;;;19.80;37.50;;;;;;5071410;28;20625;-72
2021/04/28 12:38:13;;;;;;;16.27;9.90;;;19.80;37.40;;;;;;5069121;28;20206;-73
2021/04/28 12:40:41;;;;;;;17.70;9.75;;;19.80;37.20;;;;;;5072716;28;20291;-72
2021/04/28 12:43:10;;;;;;;16.98;9.65;;;19.80;37.00;;;;;;5072699;28;20242;-71
2021/04/28 12:45:37;;;;;;;20.27;9.73;;;19.70;36.90;;;;;;5067331;28;20300;-71
2021/04/28 12:48:08;;;;;;;14.55;9.15;;;19.60;36.90;;;;;;5069010;28;20282;-72
2021/04/28 12:50:35;;;;;;;16.90;9.52;;;19.60;37.10;;;;;;5069989;28;20577;-71
2021/04/28 12:53:07;;;;;;;12.88;9.65;;;19.50;37.20;;;;;;5071759;28;20251;-73